Time;durP1;ratioP1;P1;durP2;ratioP2;P2;SDS_P1;SDS_P2;PMS_P1;PMS_P2;Temp;Humidity;BMP_temperature;BMP_pressure;BME280_temperature;BME280_humidity;BME280_pressure;Samples;Min_cycle;Max_cycle;Signal;HPM_P1;HPM_P2
2022/08/08 00:02:09;;;;;;;1.47;0.90;;;18.20;85.90;;;;;;6078447;23;20458;-78
2022/08/08 00:04:41;;;;;;;1.47;0.90;;;18.10;85.30;;;;;;6093192;23;20434;-79
2022/08/08 00:07:16;;;;;;;1.47;0.90;;;18.10;86.10;;;;;;6083064;23;20450;-79
2022/08/08 00:09:54;;;;;;;1.50;0.90;;;18.10;85.80;;;;;;6092574;23;20450;-79
2022/08/08 00:12:26;;;;;;;1.47;0.90;;;18.00;86.10;;;;;;6077569;23;20455;-79
2022/08/08 00:15:02;;;;;;;1.50;0.90;;;18.00;86.30;;;;;;6102482;23;20952;-80
2022/08/08 00:17:40;;;;;;;1.47;1.00;;;18.00;86.10;;;;;;6078939;23;20535;-80
2022/08/08 00:20:09;;;;;;;1.47;0.90;;;18.00;86.10;;;;;;6093664;23;20453;-80
2022/08/08 00:22:41;;;;;;;1.47;0.90;;;17.90;86.70;;;;;;6079499;23;20450;-79
2022/08/08 00:25:13;;;;;;;1.43;0.90;;;17.90;86.50;;;;;;6094929;23;20406;-80
2022/08/08 00:27:42;;;;;;;1.50;0.90;;;17.80;87.10;;;;;;6082169;23;20479;-80
2022/08/08 00:30:17;;;;;;;1.47;1.00;;;17.80;86.70;;;;;;6099622;23;20450;-81
2022/08/08 00:33:02;;;;;;;1.43;0.90;;;17.80;87.00;;;;;;6099808;23;20414;-82
2022/08/08 00:35:36;;;;;;;1.40;0.90;;;17.80;87.50;;;;;;6101928;23;20451;-81
2022/08/08 00:38:36;;;;;;;1.47;0.90;;;17.80;87.10;;;;;;6087926;23;20537;-80
2022/08/08 00:41:37;;;;;;;1.43;0.90;;;17.70;87.40;;;;;;6096868;23;20449;-80
2022/08/08 00:44:31;;;;;;;1.47;0.97;;;17.70;87.40;;;;;;6104001;23;20505;-80
2022/08/08 00:47:53;;;;;;;1.50;1.00;;;17.70;87.50;;;;;;6094042;23;20417;-79
2022/08/08 00:50:53;;;;;;;1.43;1.00;;;17.60;87.80;;;;;;6092739;23;20451;-79
2022/08/08 00:53:38;;;;;;;1.47;0.93;;;17.60;87.90;;;;;;6094594;23;20453;-81
2022/08/08 00:56:48;;;;;;;1.47;0.90;;;17.60;88.10;;;;;;6079308;23;20541;-79
2022/08/08 00:59:52;;;;;;;1.50;0.90;;;17.60;87.60;;;;;;6056803;23;20418;-80
2022/08/08 01:02:59;;;;;;;1.47;1.00;;;17.50;88.30;;;;;;6096054;23;20977;-81
2022/08/08 01:06:17;;;;;;;1.40;0.90;;;17.50;88.10;;;;;;6094873;23;20403;-81
2022/08/08 01:09:22;;;;;;;1.47;0.90;;;17.40;89.20;;;;;;6055556;23;20509;-80
2022/08/08 01:12:28;;;;;;;1.47;0.97;;;17.40;88.10;;;;;;6080002;23;20513;-81
2022/08/08 01:15:30;;;;;;;1.50;1.00;;;17.30;88.50;;;;;;6068323;23;20430;-79
2022/08/08 01:18:47;;;;;;;1.43;0.90;;;17.30;88.80;;;;;;6078822;23;21033;-79
2022/08/08 01:21:31;;;;;;;1.50;1.00;;;17.20;89.30;;;;;;6077681;23;20490;-79
2022/08/08 01:24:34;;;;;;;1.47;1.00;;;17.20;89.40;;;;;;6083417;23;20709;-80
2022/08/08 01:27:29;;;;;;;1.47;1.00;;;17.20;89.80;;;;;;6093268;23;20470;-80
2022/08/08 01:30:27;;;;;;;1.50;1.00;;;17.20;89.10;;;;;;6094032;23;20477;-81
2022/08/08 01:33:32;;;;;;;1.47;0.90;;;17.10;89.90;;;;;;6092384;23;20415;-81
2022/08/08 01:36:49;;;;;;;1.43;1.00;;;17.10;90.40;;;;;;6094682;23;21040;-80
2022/08/08 01:39:29;;;;;;;1.40;1.00;;;17.10;90.60;;;;;;6019234;23;20932;-79
2022/08/08 01:42:05;;;;;;;1.47;0.90;;;17.00;90.20;;;;;;6079159;23;20490;-80
2022/08/08 01:44:44;;;;;;;1.50;1.00;;;17.00;90.60;;;;;;6092614;23;20414;-82
2022/08/08 01:47:20;;;;;;;1.43;0.93;;;17.00;91.00;;;;;;6095902;23;20430;-81
2022/08/08 01:49:59;;;;;;;1.50;1.00;;;17.00;90.80;;;;;;6094591;23;20434;-81
2022/08/08 01:52:38;;;;;;;1.47;0.90;;;17.00;90.60;;;;;;6080257;23;20714;-81
2022/08/08 01:55:15;;;;;;;1.40;1.00;;;17.00;90.90;;;;;;6097422;23;20407;-81
2022/08/08 01:57:50;;;;;;;1.50;1.00;;;16.90;90.70;;;;;;6082759;23;20460;-81
2022/08/08 02:00:21;;;;;;;1.47;0.90;;;16.90;90.90;;;;;;6108311;23;20837;-82
2022/08/08 02:03:17;;;;;;;1.43;1.00;;;16.90;91.30;;;;;;6082746;23;20513;-81
2022/08/08 02:05:57;;;;;;;1.50;1.00;;;16.90;90.80;;;;;;6097968;23;20399;-81
2022/08/08 02:08:34;;;;;;;1.47;0.90;;;16.80;91.20;;;;;;6058550;23;20442;-81
2022/08/08 02:11:09;;;;;;;1.47;1.00;;;16.80;91.40;;;;;;6084430;23;20434;-81
2022/08/08 02:13:45;;;;;;;1.50;1.00;;;16.80;91.40;;;;;;6097353;23;20409;-80
2022/08/08 02:16:21;;;;;;;1.47;1.00;;;16.80;91.20;;;;;;6099017;23;20509;-81
2022/08/08 02:18:53;;;;;;;1.43;1.00;;;16.80;91.70;;;;;;6100004;23;20469;-82
2022/08/08 02:24:17;;;;;;;1.47;1.00;;;16.70;92.10;;;;;;6100538;23;20888;-82
2022/08/08 02:26:51;;;;;;;1.40;0.93;;;16.70;92.30;;;;;;6100685;23;20502;-81
2022/08/08 02:29:35;;;;;;;1.47;1.00;;;16.70;92.00;;;;;;6112203;23;20410;-82
2022/08/08 02:32:50;;;;;;;1.50;1.00;;;16.70;91.70;;;;;;6105167;23;20410;-81
2022/08/08 02:35:51;;;;;;;1.47;1.00;;;16.70;92.20;;;;;;5990175;24;20542;-81
2022/08/08 02:38:44;;;;;;;1.50;1.00;;;16.60;92.10;;;;;;5944044;24;21074;-83
2022/08/08 02:41:59;;;;;;;1.47;0.90;;;16.60;92.80;;;;;;6066066;23;20485;-80
2022/08/08 02:45:00;;;;;;;1.50;0.90;;;16.60;92.50;;;;;;6110509;23;20403;-79
2022/08/08 02:48:06;;;;;;;1.47;0.90;;;16.60;92.60;;;;;;6088923;23;20442;-80
2022/08/08 02:51:19;;;;;;;1.50;0.90;;;16.60;92.70;;;;;;6101797;23;20452;-80
2022/08/08 02:54:03;;;;;;;1.47;0.90;;;16.50;92.90;;;;;;6061197;23;20534;-80
2022/08/08 02:57:09;;;;;;;1.47;1.00;;;16.50;92.60;;;;;;6086877;23;20455;-81
2022/08/08 03:00:16;;;;;;;1.50;1.00;;;16.50;92.40;;;;;;6100740;23;20449;-81
2022/08/08 03:03:21;;;;;;;1.60;1.47;;;16.50;92.80;;;;;;6083731;23;20447;-81
2022/08/08 03:06:11;;;;;;;1.43;1.00;;;16.50;92.90;;;;;;6026967;23;20418;-81
2022/08/08 03:09:14;;;;;;;1.47;1.00;;;16.40;93.70;;;;;;6082791;23;20418;-81
2022/08/08 03:12:14;;;;;;;1.50;0.90;;;16.40;93.50;;;;;;6050374;23;20505;-81
2022/08/08 03:15:02;;;;;;;1.47;1.00;;;16.40;93.80;;;;;;6099300;23;20470;-80
2022/08/08 03:17:36;;;;;;;1.43;1.00;;;16.30;93.20;;;;;;6082423;23;20459;-80
2022/08/08 03:20:05;;;;;;;1.50;0.90;;;16.30;93.60;;;;;;6095648;23;20798;-79
2022/08/08 03:22:32;;;;;;;1.50;1.00;;;16.30;93.30;;;;;;6104878;23;20786;-81
2022/08/08 03:25:02;;;;;;;1.47;1.00;;;16.30;94.10;;;;;;6098100;23;20458;-79
2022/08/08 03:27:34;;;;;;;1.50;0.90;;;16.20;94.00;;;;;;6079000;23;20510;-79
2022/08/08 03:30:07;;;;;;;1.50;1.00;;;16.20;93.90;;;;;;6104750;23;20434;-80
2022/08/08 03:35:21;;;;;;;1.47;1.00;;;16.20;94.20;;;;;;6096608;23;20745;-81
2022/08/08 03:37:48;;;;;;;1.50;1.00;;;16.10;93.80;;;;;;6081350;23;20498;-79
2022/08/08 03:40:19;;;;;;;1.50;1.00;;;16.10;94.20;;;;;;6107674;23;20439;-81
2022/08/08 03:42:47;;;;;;;1.50;1.10;;;16.10;94.30;;;;;;6082396;23;20506;-79
2022/08/08 03:45:17;;;;;;;1.47;1.00;;;16.10;94.10;;;;;;6094990;23;20431;-78
2022/08/08 03:47:45;;;;;;;1.50;1.00;;;16.00;94.20;;;;;;6081051;23;20984;-80
2022/08/08 03:50:19;;;;;;;1.47;1.00;;;16.00;94.60;;;;;;6095968;23;20458;-79
2022/08/08 03:52:49;;;;;;;1.50;1.00;;;16.00;95.00;;;;;;6094506;23;20411;-80
2022/08/08 03:55:19;;;;;;;1.47;1.00;;;15.90;94.90;;;;;;6103213;23;20863;-80
2022/08/08 03:57:48;;;;;;;1.47;0.90;;;15.90;94.70;;;;;;6078965;23;20553;-78
2022/08/08 04:00:17;;;;;;;1.43;1.00;;;15.90;95.30;;;;;;6105354;23;20446;-78
2022/08/08 04:02:53;;;;;;;1.43;1.00;;;15.90;94.80;;;;;;6082099;23;20494;-79
2022/08/08 04:05:20;;;;;;;1.43;1.00;;;15.90;94.90;;;;;;6097929;23;20841;-80
2022/08/08 04:07:47;;;;;;;1.47;1.00;;;15.90;94.80;;;;;;6080958;23;21047;-80
2022/08/08 04:10:16;;;;;;;1.50;1.00;;;15.90;95.00;;;;;;6095919;23;20443;-78
2022/08/08 04:12:45;;;;;;;1.47;1.00;;;15.90;95.60;;;;;;6078810;23;20502;-78
2022/08/08 04:15:13;;;;;;;1.50;1.00;;;15.90;96.00;;;;;;6096341;23;20425;-79
2022/08/08 04:17:41;;;;;;;1.50;1.00;;;15.90;95.30;;;;;;6096089;23;20985;-80
2022/08/08 04:20:09;;;;;;;1.47;1.00;;;15.90;95.40;;;;;;6095210;23;20483;-80
2022/08/08 04:22:40;;;;;;;1.43;0.90;;;15.80;95.80;;;;;;6099019;23;20423;-80
2022/08/08 04:25:09;;;;;;;1.47;1.00;;;15.80;95.80;;;;;;6096105;23;20422;-79
2022/08/08 04:27:37;;;;;;;1.50;1.00;;;15.80;96.30;;;;;;6083438;23;20478;-79
2022/08/08 04:30:08;;;;;;;1.43;0.90;;;15.80;96.10;;;;;;6098055;23;20441;-79
2022/08/08 04:32:35;;;;;;;1.43;1.00;;;15.80;95.80;;;;;;6082412;23;20506;-81
2022/08/08 04:35:02;;;;;;;1.50;1.00;;;15.80;95.90;;;;;;6100040;23;20438;-81
2022/08/08 04:37:30;;;;;;;1.47;1.00;;;15.80;96.40;;;;;;6080424;23;21008;-81
2022/08/08 04:39:57;;;;;;;1.50;1.00;;;15.80;96.50;;;;;;6095366;23;20439;-79
2022/08/08 04:42:24;;;;;;;1.50;0.90;;;15.80;96.40;;;;;;6080110;23;20453;-79
2022/08/08 04:44:54;;;;;;;1.43;1.00;;;15.80;96.60;;;;;;6105320;23;20788;-80
2022/08/08 04:47:23;;;;;;;1.47;1.00;;;15.90;96.80;;;;;;6099219;23;20454;-80
2022/08/08 04:49:49;;;;;;;1.47;1.00;;;15.90;97.10;;;;;;6100393;23;20449;-80
2022/08/08 04:52:17;;;;;;;1.50;1.00;;;15.90;97.10;;;;;;6084615;23;20463;-81
2022/08/08 04:54:44;;;;;;;1.47;1.00;;;15.90;96.90;;;;;;6100666;23;20989;-80
2022/08/08 04:57:18;;;;;;;1.50;0.90;;;16.00;96.70;;;;;;6112492;23;20447;-82
2022/08/08 04:59:49;;;;;;;1.50;1.00;;;16.00;97.50;;;;;;6110393;23;20465;-80
2022/08/08 05:02:16;;;;;;;1.50;1.00;;;16.00;97.30;;;;;;6085025;23;20450;-79
2022/08/08 05:04:45;;;;;;;1.43;1.00;;;16.10;97.60;;;;;;6099971;23;20777;-80
2022/08/08 05:07:12;;;;;;;1.47;1.00;;;16.10;97.40;;;;;;6101526;23;20418;-81
2022/08/08 05:09:39;;;;;;;1.47;0.90;;;16.10;97.50;;;;;;6100491;23;20442;-81
2022/08/08 05:12:07;;;;;;;1.50;1.00;;;16.20;97.50;;;;;;6088246;23;20450;-81
2022/08/08 05:14:34;;;;;;;1.43;1.00;;;16.20;97.50;;;;;;6099283;23;20423;-80
2022/08/08 05:17:03;;;;;;;1.47;1.00;;;16.30;97.50;;;;;;6084752;23;20526;-81
2022/08/08 05:19:30;;;;;;;1.47;1.00;;;16.30;97.40;;;;;;6098431;23;20502;-80
2022/08/08 05:21:59;;;;;;;1.47;1.00;;;16.40;97.20;;;;;;6095083;23;20451;-79
2022/08/08 05:24:26;;;;;;;1.47;1.00;;;16.60;96.90;;;;;;6117301;23;20410;-81
2022/08/08 05:26:53;;;;;;;1.50;1.00;;;16.70;96.50;;;;;;6103293;23;20422;-79
2022/08/08 05:29:24;;;;;;;1.43;1.00;;;16.90;96.80;;;;;;6100487;23;20423;-81
2022/08/08 05:31:55;;;;;;;1.47;1.00;;;17.00;96.30;;;;;;6083601;23;20450;-80
2022/08/08 05:34:26;;;;;;;1.47;1.00;;;17.20;95.60;;;;;;6101560;23;20411;-81
2022/08/08 05:36:58;;;;;;;1.43;1.00;;;17.40;95.00;;;;;;6101291;23;20438;-80
2022/08/08 05:39:28;;;;;;;1.43;0.90;;;17.60;94.70;;;;;;6104599;23;20506;-79
2022/08/08 05:41:57;;;;;;;1.47;1.00;;;17.80;93.60;;;;;;6085847;23;20479;-81
2022/08/08 05:44:28;;;;;;;1.43;0.90;;;18.00;92.80;;;;;;6100700;23;20422;-79
2022/08/08 05:46:59;;;;;;;1.47;0.90;;;18.10;92.30;;;;;;6085317;23;20771;-78
2022/08/08 05:49:27;;;;;;;1.50;1.00;;;18.40;91.30;;;;;;6103853;23;20450;-81
2022/08/08 05:52:10;;;;;;;1.50;0.90;;;18.60;90.70;;;;;;6092980;23;20450;-81
2022/08/08 05:54:57;;;;;;;1.50;0.90;;;18.70;90.10;;;;;;6118322;23;20475;-80
2022/08/08 05:57:36;;;;;;;1.47;0.90;;;19.00;90.20;;;;;;6106736;23;20450;-82
2022/08/08 06:00:25;;;;;;;1.50;1.00;;;19.10;89.60;;;;;;6106634;23;20961;-79
2022/08/08 06:03:15;;;;;;;1.50;0.90;;;19.40;88.90;;;;;;6089249;23;20833;-79
2022/08/08 06:09:10;;;;;;;1.43;0.90;;;20.10;86.70;;;;;;6051241;23;20426;-79
2022/08/08 06:11:39;;;;;;;1.40;0.90;;;20.30;85.80;;;;;;6082730;23;21068;-78
2022/08/08 06:14:08;;;;;;;1.50;0.90;;;20.40;85.10;;;;;;6100014;23;20454;-81
2022/08/08 06:16:36;;;;;;;1.50;0.90;;;20.60;84.20;;;;;;6092305;23;20443;-81
2022/08/08 06:19:04;;;;;;;1.40;0.90;;;20.60;83.80;;;;;;6110584;23;20913;-79
2022/08/08 06:21:31;;;;;;;1.43;0.87;;;20.60;84.60;;;;;;6090649;23;20505;-79
2022/08/08 06:24:00;;;;;;;1.43;0.90;;;20.70;84.60;;;;;;6099557;23;20510;-79
2022/08/08 06:26:30;;;;;;;1.50;1.10;;;20.90;83.70;;;;;;6111074;23;20491;-78
2022/08/08 06:29:04;;;;;;;1.43;0.90;;;21.10;83.40;;;;;;6109644;23;20415;-78
2022/08/08 06:31:36;;;;;;;1.47;0.90;;;21.30;82.70;;;;;;6090770;23;20458;-79
2022/08/08 06:34:11;;;;;;;1.50;1.00;;;21.40;82.40;;;;;;6108089;23;20486;-79
2022/08/08 06:36:39;;;;;;;1.47;0.90;;;21.60;82.30;;;;;;6109442;23;20477;-79
2022/08/08 06:39:13;;;;;;;1.50;0.90;;;21.70;81.50;;;;;;6112599;23;20506;-80
2022/08/08 06:41:44;;;;;;;1.47;0.90;;;21.90;81.30;;;;;;6089366;23;20468;-80
2022/08/08 06:44:17;;;;;;;1.50;0.90;;;22.00;81.10;;;;;;6099628;23;20429;-80
2022/08/08 06:46:47;;;;;;;1.50;0.90;;;22.20;80.40;;;;;;6089783;23;20531;-79
2022/08/08 06:49:15;;;;;;;1.63;1.20;;;22.30;79.60;;;;;;6107995;23;20470;-80
2022/08/08 06:51:43;;;;;;;1.47;0.90;;;22.50;79.10;;;;;;6085672;23;20447;-80
2022/08/08 06:54:12;;;;;;;1.47;0.90;;;22.80;79.30;;;;;;6098291;23;20534;-80
2022/08/08 06:56:39;;;;;;;1.43;0.90;;;23.00;77.40;;;;;;6084950;23;20446;-79
2022/08/08 06:59:06;;;;;;;1.50;0.90;;;23.20;76.80;;;;;;6108544;23;20458;-79
2022/08/08 07:01:43;;;;;;;1.50;0.90;;;23.30;77.20;;;;;;6084437;23;20454;-78
2022/08/08 07:04:19;;;;;;;1.43;0.87;;;23.60;76.90;;;;;;6098360;23;20421;-80
2022/08/08 07:06:54;;;;;;;1.50;0.90;;;23.80;76.10;;;;;;6089163;23;20446;-79
2022/08/08 07:09:23;;;;;;;1.47;0.90;;;24.10;74.80;;;;;;6098484;23;20896;-79
2022/08/08 07:11:57;;;;;;;1.43;0.90;;;24.20;73.50;;;;;;6083673;23;20479;-79
2022/08/08 07:14:27;;;;;;;1.47;0.90;;;24.30;73.10;;;;;;6097587;23;20730;-79
2022/08/08 07:17:04;;;;;;;1.47;0.90;;;24.30;73.70;;;;;;6083731;23;20475;-80
2022/08/08 07:20:00;;;;;;;1.47;0.90;;;24.20;74.10;;;;;;6097167;23;20785;-80
2022/08/08 07:22:37;;;;;;;3.30;1.50;;;24.20;73.80;;;;;;6083468;23;20494;-79
2022/08/08 07:25:14;;;;;;;1.43;0.80;;;24.20;73.70;;;;;;6110663;23;20815;-80
2022/08/08 07:27:46;;;;;;;1.43;0.90;;;24.40;73.20;;;;;;6082740;23;20953;-80
2022/08/08 07:30:17;;;;;;;1.47;0.80;;;24.60;74.50;;;;;;6097382;23;20449;-78
2022/08/08 07:32:48;;;;;;;1.40;0.90;;;24.70;73.00;;;;;;6108605;23;20422;-78
2022/08/08 07:35:16;;;;;;;1.47;0.90;;;24.80;73.20;;;;;;6097463;23;20411;-78
2022/08/08 07:37:44;;;;;;;1.47;0.90;;;25.00;72.50;;;;;;6081641;23;20470;-79
2022/08/08 07:40:13;;;;;;;1.47;0.90;;;25.00;71.90;;;;;;6107064;23;20442;-78
2022/08/08 07:42:47;;;;;;;1.47;0.90;;;25.20;71.50;;;;;;6097706;23;20427;-78
2022/08/08 07:45:15;;;;;;;1.43;0.90;;;25.30;72.20;;;;;;6109943;23;20449;-79
2022/08/08 07:47:42;;;;;;;1.47;0.83;;;25.40;72.70;;;;;;6015524;23;20745;-79
2022/08/08 07:50:13;;;;;;;1.50;0.80;;;25.40;72.00;;;;;;6019573;23;20469;-79
2022/08/08 07:52:44;;;;;;;1.43;0.90;;;25.30;72.40;;;;;;6084765;23;20474;-78
2022/08/08 07:55:20;;;;;;;1.50;0.80;;;25.50;72.50;;;;;;6096868;23;20422;-77
2022/08/08 07:58:03;;;;;;;1.47;0.90;;;25.60;71.90;;;;;;6084532;23;20453;-78
2022/08/08 08:00:37;;;;;;;1.47;0.80;;;25.80;71.20;;;;;;6109624;23;20439;-79
2022/08/08 08:03:09;;;;;;;1.50;0.90;;;25.90;71.30;;;;;;6084760;23;20450;-78
2022/08/08 08:05:42;;;;;;;1.50;0.90;;;26.00;70.90;;;;;;6100783;23;20430;-78
2022/08/08 08:08:16;;;;;;;1.47;0.90;;;26.20;70.60;;;;;;6103193;23;20418;-77
2022/08/08 08:10:45;;;;;;;1.50;0.80;;;26.20;70.60;;;;;;6098844;23;20953;-78
2022/08/08 08:13:20;;;;;;;1.47;0.80;;;26.10;71.10;;;;;;6055003;23;20442;-79
2022/08/08 08:15:54;;;;;;;1.50;0.90;;;26.20;70.90;;;;;;6108483;23;20737;-78
2022/08/08 08:18:23;;;;;;;1.47;0.80;;;26.40;70.10;;;;;;6108502;23;20446;-78
2022/08/08 08:21:07;;;;;;;1.50;0.80;;;26.40;69.80;;;;;;6097942;23;20750;-78
2022/08/08 08:23:37;;;;;;;1.47;0.83;;;26.50;70.10;;;;;;6083660;23;20780;-78
2022/08/08 08:26:06;;;;;;;1.50;0.87;;;26.70;70.10;;;;;;6090042;23;20413;-81
2022/08/08 08:28:34;;;;;;;1.50;0.80;;;26.80;68.80;;;;;;6107748;23;20422;-81
2022/08/08 08:31:05;;;;;;;1.47;0.80;;;26.90;68.70;;;;;;6084789;23;21016;-80
2022/08/08 08:33:33;;;;;;;1.50;0.80;;;27.00;67.90;;;;;;6105625;23;20535;-80
2022/08/08 08:36:03;;;;;;;1.50;0.90;;;27.20;68.20;;;;;;6084448;23;20422;-79
2022/08/08 08:38:31;;;;;;;1.50;0.80;;;27.40;66.10;;;;;;6102256;23;20436;-80
2022/08/08 08:41:00;;;;;;;1.40;0.80;;;27.50;66.30;;;;;;6058398;23;20446;-80
2022/08/08 08:43:28;;;;;;;1.43;0.90;;;27.60;67.50;;;;;;6098215;23;20446;-81
2022/08/08 08:46:00;;;;;;;1.50;0.90;;;27.60;67.80;;;;;;6083727;23;20434;-79
2022/08/08 08:48:33;;;;;;;1.40;0.90;;;27.80;67.10;;;;;;6099616;23;20402;-80
2022/08/08 08:51:03;;;;;;;1.50;0.80;;;27.90;65.80;;;;;;6091795;23;20509;-79
2022/08/08 08:53:35;;;;;;;1.50;0.90;;;27.90;66.10;;;;;;6096298;23;20433;-79
2022/08/08 08:56:02;;;;;;;1.43;0.80;;;27.90;66.10;;;;;;6093632;23;20771;-79
2022/08/08 08:58:34;;;;;;;1.40;0.80;;;28.00;66.20;;;;;;6098746;23;20450;-79
2022/08/08 09:01:04;;;;;;;1.43;0.80;;;28.00;65.50;;;;;;6093734;23;20476;-79
2022/08/08 09:03:31;;;;;;;1.50;1.03;;;28.00;65.70;;;;;;6109970;23;20429;-81
2022/08/08 09:06:09;;;;;;;1.43;0.80;;;28.10;64.00;;;;;;6086867;23;20422;-80
2022/08/08 09:14:20;;;;;;;1.47;0.80;;;28.20;64.80;;;;;;6096535;23;20414;-85
2022/08/08 09:16:56;;;;;;;1.40;0.80;;;28.40;64.50;;;;;;6080806;23;20442;-85
2022/08/08 09:19:49;;;;;;;1.47;0.80;;;28.60;64.40;;;;;;6111246;23;20449;-82
2022/08/08 09:22:45;;;;;;;1.47;0.80;;;28.60;64.00;;;;;;6084984;23;20804;-82
2022/08/08 09:25:13;;;;;;;1.40;0.80;;;28.70;62.50;;;;;;6045853;23;20459;-80
2022/08/08 09:27:41;;;;;;;1.47;0.80;;;28.90;62.00;;;;;;6021408;23;20454;-82
2022/08/08 09:30:13;;;;;;;1.43;0.80;;;29.00;61.40;;;;;;6097685;23;20485;-83
2022/08/08 09:32:47;;;;;;;1.47;0.80;;;29.10;62.20;;;;;;6081482;23;20579;-83
2022/08/08 09:35:17;;;;;;;1.47;0.80;;;29.20;62.30;;;;;;6101993;23;20411;-81
2022/08/08 09:37:51;;;;;;;1.40;0.90;;;29.20;62.40;;;;;;6086001;23;20453;-84
2022/08/08 09:40:46;;;;;;;1.50;0.80;;;29.40;62.00;;;;;;6109661;23;20441;-82
2022/08/08 09:43:19;;;;;;;1.43;0.80;;;29.50;62.80;;;;;;6062704;23;20434;-81
2022/08/08 09:46:00;;;;;;;1.43;0.83;;;29.60;61.20;;;;;;6095493;23;20919;-81
2022/08/08 09:48:31;;;;;;;1.43;0.80;;;29.70;60.50;;;;;;6097695;23;20472;-80
2022/08/08 09:50:58;;;;;;;1.40;0.80;;;29.60;60.50;;;;;;6082036;23;20470;-82
2022/08/08 09:53:36;;;;;;;1.50;1.00;;;29.60;61.00;;;;;;6096851;23;20469;-80
2022/08/08 09:56:05;;;;;;;1.50;0.90;;;29.50;60.60;;;;;;6084825;23;20413;-82
2022/08/08 10:01:19;;;;;;;1.40;0.80;;;29.80;61.00;;;;;;6085499;23;20406;-80
2022/08/08 10:06:43;;;;;;;1.50;1.10;;;30.10;60.30;;;;;;6077420;23;20438;-78
2022/08/08 10:09:15;;;;;;;1.40;0.80;;;30.30;61.00;;;;;;6103029;23;20449;-79
2022/08/08 10:11:49;;;;;;;1.40;0.80;;;30.50;60.60;;;;;;6085743;23;20465;-78
2022/08/08 10:14:17;;;;;;;1.47;0.80;;;30.70;59.80;;;;;;6113143;23;20425;-77
2022/08/08 10:19:52;;;;;;;1.47;0.80;;;30.80;58.60;;;;;;6114896;23;20541;-79
2022/08/08 10:22:39;;;;;;;1.50;0.80;;;30.80;58.40;;;;;;6112444;23;20445;-80
2022/08/08 10:25:24;;;;;;;1.47;0.80;;;30.80;57.90;;;;;;6107355;23;20453;-77
2022/08/08 10:28:07;;;;;;;1.70;1.40;;;30.80;59.10;;;;;;6114995;23;20478;-80
2022/08/08 10:33:58;;;;;;;1.50;0.80;;;31.00;58.20;;;;;;6087311;23;20484;-78
2022/08/08 10:36:37;;;;;;;1.43;0.80;;;31.20;58.80;;;;;;6107537;23;20448;-80
2022/08/08 10:39:21;;;;;;;1.40;0.80;;;31.20;58.00;;;;;;6119129;23;20457;-78
2022/08/08 10:41:57;;;;;;;1.43;0.80;;;31.20;58.00;;;;;;6106746;23;20540;-81
2022/08/08 10:44:39;;;;;;;1.47;0.80;;;31.20;58.00;;;;;;6111960;23;20807;-81
2022/08/08 10:47:14;;;;;;;1.40;0.80;;;31.20;57.00;;;;;;6110638;23;20449;-78
2022/08/08 10:49:57;;;;;;;1.43;0.80;;;31.20;57.70;;;;;;6109924;23;21052;-79
2022/08/08 10:52:30;;;;;;;1.40;0.80;;;31.30;58.40;;;;;;6088733;23;20457;-79
2022/08/08 10:54:59;;;;;;;1.40;0.80;;;31.40;58.30;;;;;;6122136;23;20493;-81
2022/08/08 10:57:47;;;;;;;1.90;1.17;;;31.50;57.20;;;;;;6109632;23;20450;-79
2022/08/08 11:00:22;;;;;;;1.40;0.80;;;31.60;56.30;;;;;;6114190;23;20447;-80
2022/08/08 11:02:53;;;;;;;1.40;0.80;;;31.60;57.50;;;;;;6113660;23;20480;-77
2022/08/08 11:05:30;;;;;;;1.40;0.80;;;31.70;56.80;;;;;;6104751;23;20426;-79
2022/08/08 11:07:58;;;;;;;1.40;0.80;;;31.80;55.60;;;;;;6117557;23;20499;-78
2022/08/08 11:10:35;;;;;;;1.50;0.80;;;31.60;56.70;;;;;;6115188;23;20509;-79
2022/08/08 11:13:12;;;;;;;1.43;0.80;;;31.60;55.90;;;;;;6122542;23;20449;-79
2022/08/08 11:15:47;;;;;;;1.40;0.80;;;31.50;57.90;;;;;;6114035;23;20426;-79
2022/08/08 11:18:33;;;;;;;1.40;0.80;;;31.50;56.00;;;;;;6091271;23;20453;-80
2022/08/08 11:24:07;;;;;;;1.40;0.80;;;31.60;55.40;;;;;;6110613;23;20485;-80
2022/08/08 11:26:39;;;;;;;1.40;0.80;;;31.60;57.30;;;;;;6099488;23;20213;-78
2022/08/08 11:29:09;;;;;;;1.40;0.80;;;31.70;55.60;;;;;;6118364;23;20445;-78
2022/08/08 11:31:41;;;;;;;1.70;1.43;;;31.50;56.40;;;;;;6103702;23;20228;-77
2022/08/08 11:34:09;;;;;;;1.40;0.80;;;31.50;57.30;;;;;;6124824;23;20230;-77
2022/08/08 11:36:38;;;;;;;1.40;0.80;;;31.70;56.50;;;;;;6107444;23;20448;-80
2022/08/08 11:39:11;;;;;;;1.40;0.80;;;31.80;55.50;;;;;;6119494;23;20229;-79
2022/08/08 11:41:39;;;;;;;1.40;0.80;;;31.70;55.90;;;;;;6102456;23;20453;-78
2022/08/08 11:44:10;;;;;;;1.40;0.80;;;31.80;55.90;;;;;;6116112;23;20237;-78
2022/08/08 11:46:37;;;;;;;1.40;0.80;;;31.90;55.30;;;;;;6098958;23;20205;-79
2022/08/08 11:49:10;;;;;;;1.43;0.80;;;32.00;55.40;;;;;;6115025;23;20198;-79
2022/08/08 11:51:37;;;;;;;1.40;0.80;;;32.10;55.30;;;;;;6095725;23;20456;-80
2022/08/08 11:54:05;;;;;;;1.40;0.80;;;32.10;55.90;;;;;;6124355;23;20425;-80
2022/08/08 11:59:31;;;;;;;1.40;0.80;;;32.20;54.30;;;;;;6113311;23;20255;-79
2022/08/08 12:02:06;;;;;;;1.70;0.90;;;32.20;54.60;;;;;;6102182;23;20213;-79
2022/08/08 12:04:36;;;;;;;1.40;0.80;;;32.30;55.40;;;;;;6120475;23;20593;-78
2022/08/08 12:12:07;;;;;;;1.40;0.90;;;32.30;54.00;;;;;;6064353;23;20224;-79
2022/08/08 12:14:36;;;;;;;1.40;0.80;;;32.20;52.70;;;;;;6072972;23;20242;-75
2022/08/08 12:17:07;;;;;;;1.40;0.90;;;32.10;53.40;;;;;;6069654;23;20210;-77
2022/08/08 12:19:34;;;;;;;1.40;0.80;;;32.10;52.80;;;;;;6081391;23;20333;-77
2022/08/08 12:22:09;;;;;;;2.07;1.87;;;32.20;54.30;;;;;;6062501;23;20206;-78
2022/08/08 12:24:48;;;;;;;1.40;0.90;;;32.20;53.00;;;;;;6077166;23;20189;-81
2022/08/08 12:27:18;;;;;;;1.40;0.80;;;32.20;53.90;;;;;;6069478;23;20212;-77
2022/08/08 12:29:57;;;;;;;1.40;0.90;;;32.20;54.40;;;;;;6070610;23;20223;-77
2022/08/08 12:32:28;;;;;;;1.40;0.83;;;32.20;54.00;;;;;;6068255;23;20228;-78
2022/08/08 12:35:03;;;;;;;1.40;0.90;;;32.30;54.60;;;;;;6067095;23;20745;-77
2022/08/08 12:37:38;;;;;;;1.40;0.80;;;32.20;54.20;;;;;;6075040;23;20213;-78
2022/08/08 12:40:13;;;;;;;1.40;0.90;;;32.10;54.10;;;;;;6074100;23;20551;-77
2022/08/08 12:42:45;;;;;;;1.40;0.90;;;32.20;53.60;;;;;;6069801;23;20458;-78
2022/08/08 12:45:14;;;;;;;1.40;0.80;;;32.20;54.10;;;;;;6064847;23;20173;-80
2022/08/08 12:47:41;;;;;;;1.40;0.80;;;32.20;53.80;;;;;;6074505;23;20210;-78
2022/08/08 12:50:10;;;;;;;1.70;1.33;;;32.20;54.30;;;;;;6063684;23;20517;-76
2022/08/08 12:52:40;;;;;;;1.40;0.80;;;32.30;54.30;;;;;;6068912;23;20206;-77
2022/08/08 12:55:10;;;;;;;1.40;0.80;;;32.50;54.40;;;;;;6065624;23;20167;-78
2022/08/08 12:57:38;;;;;;;1.40;0.80;;;32.60;53.50;;;;;;6072331;23;20244;-76
2022/08/08 13:00:07;;;;;;;2.60;1.67;;;32.70;53.90;;;;;;6068421;23;20210;-79
2022/08/08 13:05:25;;;;;;;1.40;0.80;;;32.60;53.00;;;;;;6058061;23;20423;-79
2022/08/08 13:07:53;;;;;;;1.40;0.80;;;32.60;54.10;;;;;;6077460;23;20625;-79
2022/08/08 13:10:20;;;;;;;1.40;0.80;;;32.50;52.70;;;;;;6071050;23;20249;-76
2022/08/08 13:12:51;;;;;;;1.40;0.80;;;32.50;54.10;;;;;;6078775;23;20205;-79
2022/08/08 13:15:21;;;;;;;1.40;0.80;;;32.40;54.80;;;;;;6069965;23;20206;-77
2022/08/08 13:17:51;;;;;;;1.40;0.80;;;32.50;54.80;;;;;;6077116;23;20206;-77
2022/08/08 13:20:50;;;;;;;1.40;0.80;;;32.50;53.60;;;;;;6067878;23;20195;-80
2022/08/08 13:23:21;;;;;;;1.40;0.80;;;32.40;55.30;;;;;;6031892;23;20206;-78
2022/08/08 13:25:51;;;;;;;1.40;0.80;;;32.40;54.10;;;;;;6061296;23;20194;-78
2022/08/08 13:28:34;;;;;;;1.40;0.80;;;32.40;55.30;;;;;;6094529;23;20202;-78
2022/08/08 13:31:01;;;;;;;1.40;0.80;;;32.60;55.30;;;;;;6064196;23;20210;-77
2022/08/08 13:33:47;;;;;;;1.40;0.80;;;32.60;54.10;;;;;;6099063;23;20175;-81
2022/08/08 13:36:19;;;;;;;1.90;1.23;;;32.50;54.80;;;;;;6064285;23;20581;-78
2022/08/08 13:42:18;;;;;;;1.40;0.80;;;32.10;54.90;;;;;;5936145;23;20241;-79
2022/08/08 13:44:46;;;;;;;1.40;0.80;;;32.00;55.10;;;;;;6071949;23;20190;-79
2022/08/08 13:47:17;;;;;;;1.87;1.43;;;32.00;55.30;;;;;;6075813;23;20216;-78
2022/08/08 13:49:56;;;;;;;1.40;0.80;;;32.00;55.30;;;;;;6087696;23;20200;-78
2022/08/08 13:52:25;;;;;;;1.40;0.80;;;32.00;55.90;;;;;;6077245;23;20213;-77
2022/08/08 13:57:42;;;;;;;1.40;0.80;;;31.80;55.60;;;;;;6064812;23;20453;-74
2022/08/08 14:00:12;;;;;;;1.40;0.80;;;31.70;55.60;;;;;;6070923;23;20246;-79
2022/08/08 14:02:40;;;;;;;1.40;0.80;;;31.70;55.90;;;;;;6076823;23;20210;-78
2022/08/08 14:05:12;;;;;;;1.40;0.80;;;31.80;55.70;;;;;;6074355;23;20190;-77
2022/08/08 14:07:44;;;;;;;1.40;0.80;;;31.70;55.80;;;;;;6077978;23;20231;-77
2022/08/08 14:13:16;;;;;;;3.67;3.43;;;31.70;56.60;;;;;;6031363;23;20198;-78
2022/08/08 14:15:46;;;;;;;1.40;0.80;;;31.70;55.80;;;;;;6080305;23;20403;-78
2022/08/08 14:18:13;;;;;;;1.40;0.80;;;31.70;56.30;;;;;;6025648;23;20964;-76
2022/08/08 14:20:42;;;;;;;1.40;0.80;;;31.70;56.90;;;;;;6065802;23;20567;-77
2022/08/08 14:23:40;;;;;;;1.40;0.80;;;31.90;56.80;;;;;;6077824;23;20210;-77